sensor_id;sensor_type;location;lat;lon;timestamp;pressure;altitude;pressure_sealevel;temperature;humidity
67842;BME280;54642;59.126;37.876;2023-07-13T00:00:36;98603.78;;;13.06;77.83
67842;BME280;54642;59.126;37.876;2023-07-13T00:03:03;98595.69;;;13.14;77.50
67842;BME280;54642;59.126;37.876;2023-07-13T00:05:31;98617.47;;;13.11;77.56
67842;BME280;54642;59.126;37.876;2023-07-13T00:07:57;98623.22;;;13.20;77.86
67842;BME280;54642;59.126;37.876;2023-07-13T00:10:23;98599.53;;;13.04;77.71
67842;BME280;54642;59.126;37.876;2023-07-13T00:12:49;98594.28;;;13.05;77.84
67842;BME280;54642;59.126;37.876;2023-07-13T00:15:19;98596.72;;;13.10;77.74
67842;BME280;54642;59.126;37.876;2023-07-13T00:17:49;98629.38;;;13.17;77.74
67842;BME280;54642;59.126;37.876;2023-07-13T00:20:16;98572.63;;;12.83;77.75
67842;BME280;54642;59.126;37.876;2023-07-13T00:22:43;98580.19;;;12.89;77.99
67842;BME280;54642;59.126;37.876;2023-07-13T00:25:10;98615.28;;;13.01;78.15
67842;BME280;54642;59.126;37.876;2023-07-13T00:27:37;98583.56;;;12.91;77.97
67842;BME280;54642;59.126;37.876;2023-07-13T00:30:03;98635.38;;;13.19;78.01
67842;BME280;54642;59.126;37.876;2023-07-13T00:32:30;98574.94;;;12.90;77.96
67842;BME280;54642;59.126;37.876;2023-07-13T00:34:57;98616.44;;;13.15;78.13
67842;BME280;54642;59.126;37.876;2023-07-13T00:37:25;98620.44;;;13.24;78.14
67842;BME280;54642;59.126;37.876;2023-07-13T00:39:51;98619.00;;;13.17;78.02
67842;BME280;54642;59.126;37.876;2023-07-13T00:42:18;98578.94;;;12.99;78.28
67842;BME280;54642;59.126;37.876;2023-07-13T00:47:27;98563.00;;;12.85;77.88
67842;BME280;54642;59.126;37.876;2023-07-13T00:49:53;98607.00;;;13.13;78.21
67842;BME280;54642;59.126;37.876;2023-07-13T00:52:19;98598.69;;;13.03;78.34
67842;BME280;54642;59.126;37.876;2023-07-13T00:54:46;98604.28;;;13.16;78.10
67842;BME280;54642;59.126;37.876;2023-07-13T00:57:16;98612.81;;;13.20;78.05
67842;BME280;54642;59.126;37.876;2023-07-13T00:59:47;98611.06;;;13.20;78.34
67842;BME280;54642;59.126;37.876;2023-07-13T01:02:13;98587.34;;;13.06;77.94
67842;BME280;54642;59.126;37.876;2023-07-13T01:04:39;98615.34;;;13.21;78.09
67842;BME280;54642;59.126;37.876;2023-07-13T01:07:06;98563.50;;;12.94;78.07
67842;BME280;54642;59.126;37.876;2023-07-13T01:09:32;98597.28;;;13.18;78.15
67842;BME280;54642;59.126;37.876;2023-07-13T01:11:58;98587.88;;;13.14;78.23
67842;BME280;54642;59.126;37.876;2023-07-13T01:14:25;98539.38;;;12.91;77.97
67842;BME280;54642;59.126;37.876;2023-07-13T01:16:51;98588.59;;;13.18;78.27
67842;BME280;54642;59.126;37.876;2023-07-13T01:21:50;98550.69;;;12.90;78.32
67842;BME280;54642;59.126;37.876;2023-07-13T01:24:16;98592.66;;;13.03;78.25
67842;BME280;54642;59.126;37.876;2023-07-13T01:26:42;98572.22;;;12.93;78.26
67842;BME280;54642;59.126;37.876;2023-07-13T01:29:08;98547.47;;;12.83;78.43
67842;BME280;54642;59.126;37.876;2023-07-13T01:31:37;98552.09;;;12.75;78.19
67842;BME280;54642;59.126;37.876;2023-07-13T01:34:03;98529.75;;;12.71;78.24
67842;BME280;54642;59.126;37.876;2023-07-13T01:36:29;98579.22;;;12.91;78.53
67842;BME280;54642;59.126;37.876;2023-07-13T01:38:55;98558.16;;;12.75;78.67
67842;BME280;54642;59.126;37.876;2023-07-13T01:41:21;98555.44;;;12.78;78.51
67842;BME280;54642;59.126;37.876;2023-07-13T01:43:46;98591.69;;;13.05;78.50
67842;BME280;54642;59.126;37.876;2023-07-13T01:46:12;98585.03;;;12.98;78.72
67842;BME280;54642;59.126;37.876;2023-07-13T01:48:39;98575.34;;;13.02;78.42
67842;BME280;54642;59.126;37.876;2023-07-13T01:51:05;98587.47;;;13.03;78.70
67842;BME280;54642;59.126;37.876;2023-07-13T01:53:31;98551.78;;;12.84;78.64
67842;BME280;54642;59.126;37.876;2023-07-13T01:55:57;98573.53;;;13.04;78.60
67842;BME280;54642;59.126;37.876;2023-07-13T01:58:23;98580.44;;;13.05;78.69
67842;BME280;54642;59.126;37.876;2023-07-13T02:00:49;98559.16;;;12.95;78.54
67842;BME280;54642;59.126;37.876;2023-07-13T02:03:17;98538.84;;;12.83;78.36
67842;BME280;54642;59.126;37.876;2023-07-13T02:05:44;98566.66;;;13.03;78.72
67842;BME280;54642;59.126;37.876;2023-07-13T02:08:11;98470.00;;;12.47;78.55
67842;BME280;54642;59.126;37.876;2023-07-13T02:10:37;98562.25;;;13.05;78.55
67842;BME280;54642;59.126;37.876;2023-07-13T02:13:06;98563.38;;;12.97;78.48
67842;BME280;54642;59.126;37.876;2023-07-13T02:15:33;98553.22;;;12.91;78.52
67842;BME280;54642;59.126;37.876;2023-07-13T02:17:59;98509.06;;;12.68;78.47
67842;BME280;54642;59.126;37.876;2023-07-13T02:20:25;98566.88;;;12.96;78.82
67842;BME280;54642;59.126;37.876;2023-07-13T02:22:52;98566.88;;;12.96;78.52
67842;BME280;54642;59.126;37.876;2023-07-13T02:25:20;98557.47;;;12.94;78.73
67842;BME280;54642;59.126;37.876;2023-07-13T02:27:50;98570.41;;;12.95;78.82
67842;BME280;54642;59.126;37.876;2023-07-13T02:30:16;98509.53;;;12.55;78.71
67842;BME280;54642;59.126;37.876;2023-07-13T02:32:45;98575.09;;;12.86;78.91
67842;BME280;54642;59.126;37.876;2023-07-13T02:35:11;98573.41;;;12.85;79.02
67842;BME280;54642;59.126;37.876;2023-07-13T02:37:37;98579.34;;;12.88;79.17
67842;BME280;54642;59.126;37.876;2023-07-13T02:40:04;98475.19;;;12.25;78.96
67842;BME280;54642;59.126;37.876;2023-07-13T02:42:35;98578.78;;;12.80;79.32
67842;BME280;54642;59.126;37.876;2023-07-13T02:45:01;98556.66;;;12.70;79.27
67842;BME280;54642;59.126;37.876;2023-07-13T02:47:28;98555.84;;;12.68;79.34
67842;BME280;54642;59.126;37.876;2023-07-13T02:49:54;98512.72;;;12.40;79.35
67842;BME280;54642;59.126;37.876;2023-07-13T02:52:20;98573.09;;;12.70;79.24
67842;BME280;54642;59.126;37.876;2023-07-13T02:54:46;98566.91;;;12.73;79.11
67842;BME280;54642;59.126;37.876;2023-07-13T02:57:12;98553.13;;;12.71;79.29
67842;BME280;54642;59.126;37.876;2023-07-13T02:59:38;98559.06;;;12.74;79.55
67842;BME280;54642;59.126;37.876;2023-07-13T03:02:04;98553.81;;;12.76;79.59
67842;BME280;54642;59.126;37.876;2023-07-13T03:04:30;98533.63;;;12.59;79.48
67842;BME280;54642;59.126;37.876;2023-07-13T03:06:56;98544.50;;;12.70;79.31
67842;BME280;54642;59.126;37.876;2023-07-13T03:09:33;98555.72;;;12.71;79.31
67842;BME280;54642;59.126;37.876;2023-07-13T03:12:00;98557.53;;;12.69;79.35
67842;BME280;54642;59.126;37.876;2023-07-13T03:14:29;98541.16;;;12.67;79.49
67842;BME280;54642;59.126;37.876;2023-07-13T03:16:56;98531.19;;;12.56;79.38
67842;BME280;54642;59.126;37.876;2023-07-13T03:19:25;98482.69;;;12.33;79.44
67842;BME280;54642;59.126;37.876;2023-07-13T03:21:51;98545.38;;;12.69;79.44
67842;BME280;54642;59.126;37.876;2023-07-13T03:24:17;98535.91;;;12.68;79.44
67842;BME280;54642;59.126;37.876;2023-07-13T03:26:43;98470.63;;;12.30;79.24
67842;BME280;54642;59.126;37.876;2023-07-13T03:29:10;98504.41;;;12.54;79.29
67842;BME280;54642;59.126;37.876;2023-07-13T03:31:36;98529.38;;;12.58;79.28
67842;BME280;54642;59.126;37.876;2023-07-13T03:34:03;98539.41;;;12.67;79.34
67842;BME280;54642;59.126;37.876;2023-07-13T03:36:32;98521.50;;;12.59;79.31
67842;BME280;54642;59.126;37.876;2023-07-13T03:39:03;98388.56;;;11.79;79.61
67842;BME280;54642;59.126;37.876;2023-07-13T03:41:45;98534.31;;;12.64;79.66
67842;BME280;54642;59.126;37.876;2023-07-13T03:44:16;98524.91;;;12.62;79.75
67842;BME280;54642;59.126;37.876;2023-07-13T03:46:43;98502.75;;;12.51;79.88
67842;BME280;54642;59.126;37.876;2023-07-13T03:49:11;98508.56;;;12.58;79.81
67842;BME280;54642;59.126;37.876;2023-07-13T03:51:38;98493.75;;;12.38;79.90
67842;BME280;54642;59.126;37.876;2023-07-13T03:54:05;98479.16;;;12.34;79.90
67842;BME280;54642;59.126;37.876;2023-07-13T03:56:31;98522.50;;;12.55;80.12
67842;BME280;54642;59.126;37.876;2023-07-13T03:59:00;98518.28;;;12.53;80.27
67842;BME280;54642;59.126;37.876;2023-07-13T04:01:29;98493.59;;;12.41;80.17
67842;BME280;54642;59.126;37.876;2023-07-13T04:03:55;98508.06;;;12.48;80.27
67842;BME280;54642;59.126;37.876;2023-07-13T04:06:27;98442.53;;;12.18;80.11
67842;BME280;54642;59.126;37.876;2023-07-13T04:08:56;98410.75;;;11.88;80.13
67842;BME280;54642;59.126;37.876;2023-07-13T04:11:27;98474.63;;;12.39;80.05
67842;BME280;54642;59.126;37.876;2023-07-13T04:13:54;98506.03;;;12.56;79.95
67842;BME280;54642;59.126;37.876;2023-07-13T04:16:20;98504.47;;;12.52;80.06
67842;BME280;54642;59.126;37.876;2023-07-13T04:18:48;98420.97;;;11.92;80.23
67842;BME280;54642;59.126;37.876;2023-07-13T04:21:15;98491.97;;;12.38;80.35
67842;BME280;54642;59.126;37.876;2023-07-13T04:23:42;98515.13;;;12.45;80.51
67842;BME280;54642;59.126;37.876;2023-07-13T04:26:09;98495.56;;;12.36;80.54
67842;BME280;54642;59.126;37.876;2023-07-13T04:28:35;98520.25;;;12.46;80.53
67842;BME280;54642;59.126;37.876;2023-07-13T04:31:09;98517.56;;;12.49;80.66
67842;BME280;54642;59.126;37.876;2023-07-13T04:33:35;98514.97;;;12.49;80.43
67842;BME280;54642;59.126;37.876;2023-07-13T04:36:01;98475.03;;;12.28;80.60
67842;BME280;54642;59.126;37.876;2023-07-13T04:38:29;98495.38;;;12.40;80.62
67842;BME280;54642;59.126;37.876;2023-07-13T04:40:57;98485.09;;;12.37;80.60
67842;BME280;54642;59.126;37.876;2023-07-13T04:43:24;98504.41;;;12.54;80.62
67842;BME280;54642;59.126;37.876;2023-07-13T04:45:51;98502.75;;;12.51;80.42
67842;BME280;54642;59.126;37.876;2023-07-13T04:48:18;98494.91;;;12.53;80.61
67842;BME280;54642;59.126;37.876;2023-07-13T04:50:47;98414.50;;;12.04;80.66
67842;BME280;54642;59.126;37.876;2023-07-13T04:53:19;98465.38;;;12.32;80.59
67842;BME280;54642;59.126;37.876;2023-07-13T04:55:45;98459.41;;;12.30;80.68
67842;BME280;54642;59.126;37.876;2023-07-13T04:58:12;98505.06;;;12.59;80.68
67842;BME280;54642;59.126;37.876;2023-07-13T05:00:39;98501.81;;;12.54;80.68
67842;BME280;54642;59.126;37.876;2023-07-13T05:03:05;98518.63;;;12.67;80.59
67842;BME280;54642;59.126;37.876;2023-07-13T05:05:31;98481.53;;;12.40;80.54
67842;BME280;54642;59.126;37.876;2023-07-13T05:07:58;98500.63;;;12.63;80.61
67842;BME280;54642;59.126;37.876;2023-07-13T05:10:23;98500.72;;;12.59;80.87
67842;BME280;54642;59.126;37.876;2023-07-13T05:12:50;98481.03;;;12.54;80.71
67842;BME280;54642;59.126;37.876;2023-07-13T05:15:16;98506.53;;;12.66;80.82
67842;BME280;54642;59.126;37.876;2023-07-13T05:17:50;98443.53;;;12.37;80.68
67842;BME280;54642;59.126;37.876;2023-07-13T05:20:17;98412.44;;;12.12;80.90
67842;BME280;54642;59.126;37.876;2023-07-13T05:22:44;98488.50;;;12.62;80.87
67842;BME280;54642;59.126;37.876;2023-07-13T05:25:12;98483.44;;;12.58;81.07
67842;BME280;54642;59.126;37.876;2023-07-13T05:27:39;98490.88;;;12.68;81.02
67842;BME280;54642;59.126;37.876;2023-07-13T05:30:06;98497.00;;;12.67;80.76
67842;BME280;54642;59.126;37.876;2023-07-13T05:32:33;98476.78;;;12.51;80.91
67842;BME280;54642;59.126;37.876;2023-07-13T05:34:59;98489.47;;;12.59;81.12
67842;BME280;54642;59.126;37.876;2023-07-13T05:37:25;98486.03;;;12.58;81.21
67842;BME280;54642;59.126;37.876;2023-07-13T05:39:51;98479.31;;;12.53;81.10
67842;BME280;54642;59.126;37.876;2023-07-13T05:42:18;98502.19;;;12.67;81.25
67842;BME280;54642;59.126;37.876;2023-07-13T05:44:44;98464.81;;;12.47;81.09
67842;BME280;54642;59.126;37.876;2023-07-13T05:47:10;98487.72;;;12.59;81.03
67842;BME280;54642;59.126;37.876;2023-07-13T05:49:36;98475.63;;;12.58;80.99
67842;BME280;54642;59.126;37.876;2023-07-13T05:52:03;98479.81;;;12.63;81.55
67842;BME280;54642;59.126;37.876;2023-07-13T05:54:29;98478.06;;;12.63;81.38
67842;BME280;54642;59.126;37.876;2023-07-13T05:56:55;98434.72;;;12.42;81.51
67842;BME280;54642;59.126;37.876;2023-07-13T05:59:22;98481.50;;;12.64;81.40
67842;BME280;54642;59.126;37.876;2023-07-13T06:01:49;98434.09;;;12.35;81.51
67842;BME280;54642;59.126;37.876;2023-07-13T06:04:18;98461.19;;;12.51;81.40
67842;BME280;54642;59.126;37.876;2023-07-13T06:06:45;98464.56;;;12.53;81.47
67842;BME280;54642;59.126;37.876;2023-07-13T06:09:12;98467.09;;;12.55;81.27
67842;BME280;54642;59.126;37.876;2023-07-13T06:11:38;98476.56;;;12.57;81.61
67842;BME280;54642;59.126;37.876;2023-07-13T06:14:05;98447.78;;;12.40;81.72
67842;BME280;54642;59.126;37.876;2023-07-13T06:16:31;98436.81;;;12.32;81.57
67842;BME280;54642;59.126;37.876;2023-07-13T06:18:57;98480.94;;;12.55;81.51
67842;BME280;54642;59.126;37.876;2023-07-13T06:21:23;98473.28;;;12.52;81.76
67842;BME280;54642;59.126;37.876;2023-07-13T06:23:50;98474.13;;;12.53;82.01
67842;BME280;54642;59.126;37.876;2023-07-13T06:26:18;98464.75;;;12.49;82.04
67842;BME280;54642;59.126;37.876;2023-07-13T06:28:44;98439.91;;;12.42;82.00
67842;BME280;54642;59.126;37.876;2023-07-13T06:31:12;98436.53;;;12.39;81.99
67842;BME280;54642;59.126;37.876;2023-07-13T06:33:45;98480.72;;;12.62;82.05
67842;BME280;54642;59.126;37.876;2023-07-13T06:36:11;98463.47;;;12.59;81.92
67842;BME280;54642;59.126;37.876;2023-07-13T06:38:38;98437.38;;;12.40;81.92
67842;BME280;54642;59.126;37.876;2023-07-13T06:41:05;98430.63;;;12.36;81.79
67842;BME280;54642;59.126;37.876;2023-07-13T06:43:32;98481.50;;;12.64;81.99
67842;BME280;54642;59.126;37.876;2023-07-13T06:45:58;98484.78;;;12.69;81.73
67842;BME280;54642;59.126;37.876;2023-07-13T06:48:24;98483.22;;;12.65;81.84
67842;BME280;54642;59.126;37.876;2023-07-13T06:50:50;98461.06;;;12.54;81.77
67842;BME280;54642;59.126;37.876;2023-07-13T06:53:18;98479.47;;;12.72;81.93
67842;BME280;54642;59.126;37.876;2023-07-13T06:55:44;98486.34;;;12.73;81.99
67842;BME280;54642;59.126;37.876;2023-07-13T06:58:11;98473.59;;;12.67;81.80
67842;BME280;54642;59.126;37.876;2023-07-13T07:00:37;98474.38;;;12.69;81.99
67842;BME280;54642;59.126;37.876;2023-07-13T07:03:06;98393.13;;;12.19;81.81
67842;BME280;54642;59.126;37.876;2023-07-13T07:05:32;98471.66;;;12.72;82.07
67842;BME280;54642;59.126;37.876;2023-07-13T07:07:59;98457.06;;;12.68;81.79
67842;BME280;54642;59.126;37.876;2023-07-13T07:10:26;98465.50;;;12.74;81.89
67842;BME280;54642;59.126;37.876;2023-07-13T07:12:53;98467.00;;;12.80;82.08
67842;BME280;54642;59.126;37.876;2023-07-13T07:15:19;98455.94;;;12.75;81.96
67842;BME280;54642;59.126;37.876;2023-07-13T07:17:45;98455.16;;;12.73;82.11
67842;BME280;54642;59.126;37.876;2023-07-13T07:20:12;98460.13;;;12.79;81.93
67842;BME280;54642;59.126;37.876;2023-07-13T07:22:38;98470.38;;;12.82;81.92
67842;BME280;54642;59.126;37.876;2023-07-13T07:25:05;98473.84;;;12.83;82.05
67842;BME280;54642;59.126;37.876;2023-07-13T07:27:32;98472.19;;;12.80;81.93
67842;BME280;54642;59.126;37.876;2023-07-13T07:30:01;98467.13;;;12.77;81.89
67842;BME280;54642;59.126;37.876;2023-07-13T07:32:29;98477.41;;;12.80;81.79
67842;BME280;54642;59.126;37.876;2023-07-13T07:34:57;98484.97;;;12.86;81.92
67842;BME280;54642;59.126;37.876;2023-07-13T07:37:23;98473.19;;;12.77;81.98
67842;BME280;54642;59.126;37.876;2023-07-13T07:39:49;98475.72;;;12.79;81.82
67842;BME280;54642;59.126;37.876;2023-07-13T07:42:15;98446.94;;;12.62;81.89
67842;BME280;54642;59.126;37.876;2023-07-13T07:44:41;98487.56;;;12.86;81.84
67842;BME280;54642;59.126;37.876;2023-07-13T07:47:08;98485.19;;;12.80;81.86
67842;BME280;54642;59.126;37.876;2023-07-13T07:49:36;98475.00;;;12.75;81.91
67842;BME280;54642;59.126;37.876;2023-07-13T07:52:02;98486.63;;;12.87;81.94
67842;BME280;54642;59.126;37.876;2023-07-13T07:54:28;98487.56;;;12.86;82.00
67842;BME280;54642;59.126;37.876;2023-07-13T07:56:54;98435.56;;;12.64;82.04
67842;BME280;54642;59.126;37.876;2023-07-13T07:59:20;98492.47;;;12.94;82.23
67842;BME280;54642;59.126;37.876;2023-07-13T08:01:46;98494.38;;;12.89;82.19
67842;BME280;54642;59.126;37.876;2023-07-13T08:04:16;98497.66;;;12.94;82.15
67842;BME280;54642;59.126;37.876;2023-07-13T08:06:42;98502.25;;;12.87;82.00
67842;BME280;54642;59.126;37.876;2023-07-13T08:09:08;98463.47;;;12.59;82.30
67842;BME280;54642;59.126;37.876;2023-07-13T08:11:34;98512.41;;;12.93;82.32
67842;BME280;54642;59.126;37.876;2023-07-13T08:14:00;98518.50;;;12.92;82.44
67842;BME280;54642;59.126;37.876;2023-07-13T08:16:26;98478.75;;;12.68;82.20
67842;BME280;54642;59.126;37.876;2023-07-13T08:18:52;98516.09;;;12.88;82.26
67842;BME280;54642;59.126;37.876;2023-07-13T08:21:18;98470.22;;;12.65;82.12
67842;BME280;54642;59.126;37.876;2023-07-13T08:23:47;98491.31;;;12.79;82.19
67842;BME280;54642;59.126;37.876;2023-07-13T08:26:13;98493.13;;;12.77;82.25
67842;BME280;54642;59.126;37.876;2023-07-13T08:28:40;98457.44;;;12.58;82.28
67842;BME280;54642;59.126;37.876;2023-07-13T08:31:07;98505.63;;;12.89;82.25
67842;BME280;54642;59.126;37.876;2023-07-13T08:33:35;98507.34;;;12.90;82.45
67842;BME280;54642;59.126;37.876;2023-07-13T08:36:04;98491.84;;;12.87;82.35
67842;BME280;54642;59.126;37.876;2023-07-13T08:38:31;98429.53;;;12.42;82.17
67842;BME280;54642;59.126;37.876;2023-07-13T08:40:57;98519.34;;;12.93;82.70
67842;BME280;54642;59.126;37.876;2023-07-13T08:43:31;98499.38;;;12.71;82.72
67842;BME280;54642;59.126;37.876;2023-07-13T08:46:10;98497.78;;;12.69;82.61
67842;BME280;54642;59.126;37.876;2023-07-13T08:48:56;98515.38;;;12.84;82.53
67842;BME280;54642;59.126;37.876;2023-07-13T08:54:02;98515.13;;;12.90;82.47
67842;BME280;54642;59.126;37.876;2023-07-13T08:56:30;98471.16;;;12.62;82.53
67842;BME280;54642;59.126;37.876;2023-07-13T08:59:00;98513.31;;;12.92;82.73
67842;BME280;54642;59.126;37.876;2023-07-13T09:04:26;98500.94;;;12.77;82.65
67842;BME280;54642;59.126;37.876;2023-07-13T09:12:35;98528.91;;;12.92;82.68
67842;BME280;54642;59.126;37.876;2023-07-13T09:15:17;98512.94;;;12.80;82.79
67842;BME280;54642;59.126;37.876;2023-07-13T09:17:49;98536.50;;;12.99;82.88
67842;BME280;54642;59.126;37.876;2023-07-13T09:20:22;98538.94;;;13.02;82.77
67842;BME280;54642;59.126;37.876;2023-07-13T09:22:50;98489.13;;;12.68;82.83
67842;BME280;54642;59.126;37.876;2023-07-13T09:27:49;98479.28;;;12.76;82.98
67842;BME280;54642;59.126;37.876;2023-07-13T09:30:20;98530.25;;;13.03;82.71
67842;BME280;54642;59.126;37.876;2023-07-13T09:32:51;98536.19;;;13.06;82.68
67842;BME280;54642;59.126;37.876;2023-07-13T09:35:27;98519.97;;;13.00;82.91
67842;BME280;54642;59.126;37.876;2023-07-13T09:38:30;98493.19;;;12.97;82.81
67842;BME280;54642;59.126;37.876;2023-07-13T09:43:26;98513.94;;;12.99;82.52
67842;BME280;54642;59.126;37.876;2023-07-13T09:45:55;98520.75;;;13.02;82.72
67842;BME280;54642;59.126;37.876;2023-07-13T09:48:21;98528.69;;;12.99;82.91
67842;BME280;54642;59.126;37.876;2023-07-13T09:50:54;98523.50;;;12.99;82.97
67842;BME280;54642;59.126;37.876;2023-07-13T09:53:21;98514.16;;;12.93;82.97
67842;BME280;54642;59.126;37.876;2023-07-13T09:55:49;98500.63;;;12.85;82.90
67842;BME280;54642;59.126;37.876;2023-07-13T10:00:44;98533.75;;;13.02;83.11
67842;BME280;54642;59.126;37.876;2023-07-13T10:03:22;98503.38;;;12.80;83.14
67842;BME280;54642;59.126;37.876;2023-07-13T10:05:49;98550.94;;;13.06;83.36
67842;BME280;54642;59.126;37.876;2023-07-13T10:08:27;98506.78;;;12.82;83.01
67842;BME280;54642;59.126;37.876;2023-07-13T10:11:10;98554.28;;;13.09;83.33
67842;BME280;54642;59.126;37.876;2023-07-13T10:13:48;98542.22;;;13.07;83.36
67842;BME280;54642;59.126;37.876;2023-07-13T10:16:15;98554.06;;;13.14;83.14
67842;BME280;54642;59.126;37.876;2023-07-13T10:18:46;98553.91;;;13.19;83.22
67842;BME280;54642;59.126;37.876;2023-07-13T10:21:20;98554.75;;;13.19;83.21
67842;BME280;54642;59.126;37.876;2023-07-13T10:23:51;98565.75;;;13.26;83.21
67842;BME280;54642;59.126;37.876;2023-07-13T10:26:31;98562.31;;;13.25;83.30
67842;BME280;54642;59.126;37.876;2023-07-13T10:29:02;98551.19;;;13.22;82.88
67842;BME280;54642;59.126;37.876;2023-07-13T10:31:30;98518.03;;;13.05;83.18
67842;BME280;54642;59.126;37.876;2023-07-13T10:33:57;98563.09;;;13.27;82.75
67842;BME280;54642;59.126;37.876;2023-07-13T10:38:50;98564.84;;;13.27;82.74
67842;BME280;54642;59.126;37.876;2023-07-13T10:41:22;98528.25;;;13.09;83.03
67842;BME280;54642;59.126;37.876;2023-07-13T10:43:54;98522.25;;;13.07;83.04
67842;BME280;54642;59.126;37.876;2023-07-13T10:46:26;98575.03;;;13.33;83.16
67842;BME280;54642;59.126;37.876;2023-07-13T10:48:58;98565.56;;;13.30;83.19
67842;BME280;54642;59.126;37.876;2023-07-13T10:51:26;98582.91;;;13.31;83.21
67842;BME280;54642;59.126;37.876;2023-07-13T10:54:32;98578.53;;;13.32;83.08
67842;BME280;54642;59.126;37.876;2023-07-13T10:57:14;98572.63;;;13.27;83.27
67842;BME280;54642;59.126;37.876;2023-07-13T10:59:45;98586.19;;;13.37;83.37
67842;BME280;54642;59.126;37.876;2023-07-13T11:02:33;98586.06;;;13.40;83.35
67842;BME280;54642;59.126;37.876;2023-07-13T11:05:17;98586.97;;;13.39;83.50
67842;BME280;54642;59.126;37.876;2023-07-13T11:07:55;98585.91;;;13.43;83.27
67842;BME280;54642;59.126;37.876;2023-07-13T11:10:47;98576.38;;;13.43;83.43
67842;BME280;54642;59.126;37.876;2023-07-13T11:16:37;98584.28;;;13.40;83.26
67842;BME280;54642;59.126;37.876;2023-07-13T11:19:08;98599.78;;;13.43;83.58
67842;BME280;54642;59.126;37.876;2023-07-13T11:24:48;98592.03;;;13.42;83.52
67842;BME280;54642;59.126;37.876;2023-07-13T11:27:27;98579.50;;;13.29;83.67
67842;BME280;54642;59.126;37.876;2023-07-13T11:36:27;98565.66;;;13.29;83.74
67842;BME280;54642;59.126;37.876;2023-07-13T11:38:36;98600.44;;;13.48;83.76
67842;BME280;54642;59.126;37.876;2023-07-13T11:41:17;98580.03;;;13.38;83.81
67842;BME280;54642;59.126;37.876;2023-07-13T11:43:45;98583.97;;;13.48;83.74
67842;BME280;54642;59.126;37.876;2023-07-13T11:48:46;98587.34;;;13.50;84.10
67842;BME280;54642;59.126;37.876;2023-07-13T11:51:29;98565.47;;;13.33;83.93
67842;BME280;54642;59.126;37.876;2023-07-13T11:54:03;98573.81;;;13.42;83.85
67842;BME280;54642;59.126;37.876;2023-07-13T11:56:30;98544.94;;;13.26;83.88
67842;BME280;54642;59.126;37.876;2023-07-13T11:59:02;98546.81;;;13.22;84.16
67842;BME280;54642;59.126;37.876;2023-07-13T12:01:31;98590.09;;;13.47;84.18
67842;BME280;54642;59.126;37.876;2023-07-13T12:04:02;98603.84;;;13.50;84.04
67842;BME280;54642;59.126;37.876;2023-07-13T12:06:30;98554.78;;;13.18;84.19
67842;BME280;54642;59.126;37.876;2023-07-13T12:09:02;98619.38;;;13.52;84.13
67842;BME280;54642;59.126;37.876;2023-07-13T12:11:30;98581.16;;;13.30;84.23
67842;BME280;54642;59.126;37.876;2023-07-13T12:13:56;98613.28;;;13.53;84.27
67842;BME280;54642;59.126;37.876;2023-07-13T12:16:27;98611.72;;;13.49;84.15
67842;BME280;54642;59.126;37.876;2023-07-13T12:18:54;98621.13;;;13.51;84.31
67842;BME280;54642;59.126;37.876;2023-07-13T12:21:27;98619.13;;;13.58;84.13
67842;BME280;54642;59.126;37.876;2023-07-13T12:23:55;98575.88;;;13.33;84.08
67842;BME280;54642;59.126;37.876;2023-07-13T12:26:21;98637.88;;;13.66;83.96
67842;BME280;54642;59.126;37.876;2023-07-13T12:28:51;98624.03;;;13.66;84.18
67842;BME280;54642;59.126;37.876;2023-07-13T12:31:41;98616.41;;;13.61;84.23
67842;BME280;54642;59.126;37.876;2023-07-13T12:34:13;98633.34;;;13.71;84.27
67842;BME280;54642;59.126;37.876;2023-07-13T12:36:52;98640.19;;;13.74;84.21
67842;BME280;54642;59.126;37.876;2023-07-13T12:39:32;98648.00;;;13.74;84.13
67842;BME280;54642;59.126;37.876;2023-07-13T12:42:24;98650.63;;;13.74;84.61
67842;BME280;54642;59.126;37.876;2023-07-13T12:45:17;98644.69;;;13.70;84.23
67842;BME280;54642;59.126;37.876;2023-07-13T12:47:48;98627.63;;;13.63;84.45
67842;BME280;54642;59.126;37.876;2023-07-13T12:50:20;98637.97;;;13.65;84.37
67842;BME280;54642;59.126;37.876;2023-07-13T12:53:03;98637.25;;;13.61;84.61
67842;BME280;54642;59.126;37.876;2023-07-13T12:55:30;98643.97;;;13.67;84.38
67842;BME280;54642;59.126;37.876;2023-07-13T12:58:03;98640.47;;;13.66;84.51
67842;BME280;54642;59.126;37.876;2023-07-13T13:00:31;98654.84;;;13.77;84.63
67842;BME280;54642;59.126;37.876;2023-07-13T13:03:05;98644.63;;;13.72;84.71
67842;BME280;54642;59.126;37.876;2023-07-13T13:05:32;98600.44;;;13.48;84.66
67842;BME280;54642;59.126;37.876;2023-07-13T13:07:58;98654.72;;;13.80;84.66
67842;BME280;54642;59.126;37.876;2023-07-13T13:10:24;98640.97;;;13.76;84.56
67842;BME280;54642;59.126;37.876;2023-07-13T13:12:51;98639.34;;;13.73;84.80
67842;BME280;54642;59.126;37.876;2023-07-13T13:15:18;98665.78;;;13.85;84.54
67842;BME280;54642;59.126;37.876;2023-07-13T13:17:44;98653.00;;;13.79;84.82
67842;BME280;54642;59.126;37.876;2023-07-13T13:20:18;98653.72;;;13.82;84.88
67842;BME280;54642;59.126;37.876;2023-07-13T13:22:45;98631.00;;;13.65;84.73
67842;BME280;54642;59.126;37.876;2023-07-13T13:25:12;98667.47;;;13.86;84.89
67842;BME280;54642;59.126;37.876;2023-07-13T13:27:41;98611.50;;;13.53;84.65
67842;BME280;54642;59.126;37.876;2023-07-13T13:30:16;98659.03;;;13.81;84.74
67842;BME280;54642;59.126;37.876;2023-07-13T13:32:45;98629.22;;;13.66;84.89
67842;BME280;54642;59.126;37.876;2023-07-13T13:35:17;98668.13;;;13.91;84.73
67842;BME280;54642;59.126;37.876;2023-07-13T13:37:44;98655.25;;;13.88;84.85
67842;BME280;54642;59.126;37.876;2023-07-13T13:40:18;98670.63;;;13.94;84.80